sensor_id;sensor_type;location;lat;lon;timestamp;P1;durP1;ratioP1;P2;durP2;ratioP2
8791;SDS011;4432;50.890;4.744;2023-04-29T00:02:12;30.03;;;15.70;;
8791;SDS011;4432;50.890;4.744;2023-04-29T00:04:38;37.93;;;16.10;;
8791;SDS011;4432;50.890;4.744;2023-04-29T00:07:04;31.50;;;15.97;;
8791;SDS011;4432;50.890;4.744;2023-04-29T00:09:29;32.63;;;16.03;;
8791;SDS011;4432;50.890;4.744;2023-04-29T00:11:55;32.97;;;16.03;;
8791;SDS011;4432;50.890;4.744;2023-04-29T00:14:21;31.60;;;14.27;;
8791;SDS011;4432;50.890;4.744;2023-04-29T00:16:47;28.03;;;14.40;;
8791;SDS011;4432;50.890;4.744;2023-04-29T00:19:12;31.07;;;13.17;;
8791;SDS011;4432;50.890;4.744;2023-04-29T00:21:38;27.00;;;13.93;;
8791;SDS011;4432;50.890;4.744;2023-04-29T00:24:04;30.10;;;13.37;;
8791;SDS011;4432;50.890;4.744;2023-04-29T00:26:30;24.73;;;13.23;;
8791;SDS011;4432;50.890;4.744;2023-04-29T00:28:56;29.10;;;13.47;;
8791;SDS011;4432;50.890;4.744;2023-04-29T00:31:21;28.67;;;13.90;;
8791;SDS011;4432;50.890;4.744;2023-04-29T00:33:47;24.27;;;11.93;;
8791;SDS011;4432;50.890;4.744;2023-04-29T00:36:13;26.37;;;12.13;;
8791;SDS011;4432;50.890;4.744;2023-04-29T00:38:39;23.27;;;12.57;;
8791;SDS011;4432;50.890;4.744;2023-04-29T00:41:05;20.57;;;12.93;;
8791;SDS011;4432;50.890;4.744;2023-04-29T00:43:30;25.10;;;13.07;;
8791;SDS011;4432;50.890;4.744;2023-04-29T00:45:56;23.93;;;11.80;;
8791;SDS011;4432;50.890;4.744;2023-04-29T00:48:22;22.83;;;12.03;;
8791;SDS011;4432;50.890;4.744;2023-04-29T00:50:48;27.07;;;13.60;;
8791;SDS011;4432;50.890;4.744;2023-04-29T00:53:15;27.27;;;13.27;;
8791;SDS011;4432;50.890;4.744;2023-04-29T00:55:41;25.10;;;12.53;;
8791;SDS011;4432;50.890;4.744;2023-04-29T00:58:09;23.50;;;12.13;;
8791;SDS011;4432;50.890;4.744;2023-04-29T01:00:36;27.63;;;12.90;;
8791;SDS011;4432;50.890;4.744;2023-04-29T01:03:03;30.90;;;13.60;;
8791;SDS011;4432;50.890;4.744;2023-04-29T01:05:29;24.60;;;13.30;;
8791;SDS011;4432;50.890;4.744;2023-04-29T01:11:09;30.37;;;13.13;;
8791;SDS011;4432;50.890;4.744;2023-04-29T01:19:02;25.80;;;12.83;;
8791;SDS011;4432;50.890;4.744;2023-04-29T01:21:46;29.73;;;13.13;;
8791;SDS011;4432;50.890;4.744;2023-04-29T01:24:15;24.60;;;13.10;;
8791;SDS011;4432;50.890;4.744;2023-04-29T01:26:42;27.30;;;12.93;;
8791;SDS011;4432;50.890;4.744;2023-04-29T01:29:27;30.67;;;13.47;;
8791;SDS011;4432;50.890;4.744;2023-04-29T01:32:04;31.60;;;14.23;;
8791;SDS011;4432;50.890;4.744;2023-04-29T01:34:36;33.23;;;14.27;;
8791;SDS011;4432;50.890;4.744;2023-04-29T01:39:55;26.63;;;13.40;;
8791;SDS011;4432;50.890;4.744;2023-04-29T01:45:04;31.93;;;13.57;;
8791;SDS011;4432;50.890;4.744;2023-04-29T01:47:31;26.80;;;13.80;;
8791;SDS011;4432;50.890;4.744;2023-04-29T01:49:58;32.10;;;14.23;;
8791;SDS011;4432;50.890;4.744;2023-04-29T01:52:23;27.73;;;14.70;;
8791;SDS011;4432;50.890;4.744;2023-04-29T01:54:49;32.03;;;14.03;;
8791;SDS011;4432;50.890;4.744;2023-04-29T01:57:15;37.13;;;16.13;;
8791;SDS011;4432;50.890;4.744;2023-04-29T01:59:41;31.67;;;17.00;;
8791;SDS011;4432;50.890;4.744;2023-04-29T02:02:07;28.57;;;15.27;;
8791;SDS011;4432;50.890;4.744;2023-04-29T02:04:34;29.37;;;15.50;;
8791;SDS011;4432;50.890;4.744;2023-04-29T02:07:00;33.70;;;14.63;;
8791;SDS011;4432;50.890;4.744;2023-04-29T02:09:25;37.13;;;16.37;;
8791;SDS011;4432;50.890;4.744;2023-04-29T02:11:51;29.33;;;14.23;;
8791;SDS011;4432;50.890;4.744;2023-04-29T02:14:17;33.80;;;14.73;;
8791;SDS011;4432;50.890;4.744;2023-04-29T02:16:43;28.73;;;14.90;;
8791;SDS011;4432;50.890;4.744;2023-04-29T02:19:09;28.70;;;13.80;;
8791;SDS011;4432;50.890;4.744;2023-04-29T02:21:35;27.20;;;14.70;;
8791;SDS011;4432;50.890;4.744;2023-04-29T02:24:04;31.97;;;15.00;;
8791;SDS011;4432;50.890;4.744;2023-04-29T02:26:30;26.30;;;14.27;;
8791;SDS011;4432;50.890;4.744;2023-04-29T02:28:57;25.70;;;13.80;;
8791;SDS011;4432;50.890;4.744;2023-04-29T02:31:22;24.83;;;13.07;;
8791;SDS011;4432;50.890;4.744;2023-04-29T02:33:48;27.17;;;15.53;;
8791;SDS011;4432;50.890;4.744;2023-04-29T02:36:14;24.20;;;13.73;;
8791;SDS011;4432;50.890;4.744;2023-04-29T02:38:40;27.20;;;15.87;;
8791;SDS011;4432;50.890;4.744;2023-04-29T02:41:05;26.70;;;15.57;;
8791;SDS011;4432;50.890;4.744;2023-04-29T02:43:32;29.80;;;15.00;;
8791;SDS011;4432;50.890;4.744;2023-04-29T02:45:58;26.83;;;15.40;;
8791;SDS011;4432;50.890;4.744;2023-04-29T02:48:25;28.67;;;15.63;;
8791;SDS011;4432;50.890;4.744;2023-04-29T02:50:51;25.13;;;15.10;;
8791;SDS011;4432;50.890;4.744;2023-04-29T02:53:17;28.77;;;15.83;;
8791;SDS011;4432;50.890;4.744;2023-04-29T02:55:43;27.83;;;14.60;;
8791;SDS011;4432;50.890;4.744;2023-04-29T02:58:09;24.57;;;13.50;;
8791;SDS011;4432;50.890;4.744;2023-04-29T03:00:34;24.20;;;14.33;;
8791;SDS011;4432;50.890;4.744;2023-04-29T03:03:00;22.33;;;12.30;;
8791;SDS011;4432;50.890;4.744;2023-04-29T03:05:26;25.73;;;13.03;;
8791;SDS011;4432;50.890;4.744;2023-04-29T03:07:52;23.20;;;12.67;;
8791;SDS011;4432;50.890;4.744;2023-04-29T03:10:18;25.43;;;13.03;;
8791;SDS011;4432;50.890;4.744;2023-04-29T03:12:43;21.80;;;12.40;;
8791;SDS011;4432;50.890;4.744;2023-04-29T03:15:09;22.20;;;13.40;;
8791;SDS011;4432;50.890;4.744;2023-04-29T03:17:35;20.90;;;12.60;;
8791;SDS011;4432;50.890;4.744;2023-04-29T03:20:01;24.33;;;14.27;;
8791;SDS011;4432;50.890;4.744;2023-04-29T03:22:28;21.50;;;13.47;;
8791;SDS011;4432;50.890;4.744;2023-04-29T03:24:54;23.87;;;14.13;;
8791;SDS011;4432;50.890;4.744;2023-04-29T03:27:20;23.63;;;13.60;;
8791;SDS011;4432;50.890;4.744;2023-04-29T03:29:46;28.13;;;14.23;;
8791;SDS011;4432;50.890;4.744;2023-04-29T03:32:12;24.17;;;13.20;;
8791;SDS011;4432;50.890;4.744;2023-04-29T03:34:38;23.50;;;12.80;;
8791;SDS011;4432;50.890;4.744;2023-04-29T03:37:04;19.87;;;12.57;;
8791;SDS011;4432;50.890;4.744;2023-04-29T03:39:30;17.97;;;11.47;;
8791;SDS011;4432;50.890;4.744;2023-04-29T03:41:57;23.07;;;13.23;;
8791;SDS011;4432;50.890;4.744;2023-04-29T03:44:26;24.73;;;13.40;;
8791;SDS011;4432;50.890;4.744;2023-04-29T03:46:53;22.23;;;11.83;;
8791;SDS011;4432;50.890;4.744;2023-04-29T03:49:19;21.47;;;12.90;;
8791;SDS011;4432;50.890;4.744;2023-04-29T03:51:45;21.70;;;12.63;;
8791;SDS011;4432;50.890;4.744;2023-04-29T03:54:11;21.27;;;13.53;;
8791;SDS011;4432;50.890;4.744;2023-04-29T03:56:37;20.90;;;11.83;;
8791;SDS011;4432;50.890;4.744;2023-04-29T03:59:03;19.67;;;12.83;;
8791;SDS011;4432;50.890;4.744;2023-04-29T04:01:29;25.10;;;12.57;;
8791;SDS011;4432;50.890;4.744;2023-04-29T04:03:55;20.57;;;13.30;;
8791;SDS011;4432;50.890;4.744;2023-04-29T04:06:21;26.50;;;12.93;;
8791;SDS011;4432;50.890;4.744;2023-04-29T04:08:47;21.80;;;12.97;;
8791;SDS011;4432;50.890;4.744;2023-04-29T04:11:13;25.73;;;13.67;;
8791;SDS011;4432;50.890;4.744;2023-04-29T04:13:42;28.30;;;13.23;;
8791;SDS011;4432;50.890;4.744;2023-04-29T04:16:08;25.40;;;13.97;;
8791;SDS011;4432;50.890;4.744;2023-04-29T04:18:37;26.33;;;14.90;;
8791;SDS011;4432;50.890;4.744;2023-04-29T04:21:07;36.37;;;14.70;;
8791;SDS011;4432;50.890;4.744;2023-04-29T04:23:34;27.13;;;14.37;;
8791;SDS011;4432;50.890;4.744;2023-04-29T04:26:00;23.67;;;13.50;;
8791;SDS011;4432;50.890;4.744;2023-04-29T04:28:26;30.60;;;14.30;;
8791;SDS011;4432;50.890;4.744;2023-04-29T04:30:52;27.97;;;14.37;;
8791;SDS011;4432;50.890;4.744;2023-04-29T04:33:18;26.97;;;14.77;;
8791;SDS011;4432;50.890;4.744;2023-04-29T04:35:43;33.17;;;16.13;;
8791;SDS011;4432;50.890;4.744;2023-04-29T04:38:09;30.60;;;14.07;;
8791;SDS011;4432;50.890;4.744;2023-04-29T04:40:42;31.40;;;15.50;;
8791;SDS011;4432;50.890;4.744;2023-04-29T04:43:08;28.03;;;13.47;;
8791;SDS011;4432;50.890;4.744;2023-04-29T04:45:34;23.20;;;12.47;;
8791;SDS011;4432;50.890;4.744;2023-04-29T04:48:00;26.43;;;13.73;;
8791;SDS011;4432;50.890;4.744;2023-04-29T04:50:27;24.07;;;13.23;;
8791;SDS011;4432;50.890;4.744;2023-04-29T04:52:56;26.80;;;14.23;;
8791;SDS011;4432;50.890;4.744;2023-04-29T04:55:22;25.50;;;14.40;;
8791;SDS011;4432;50.890;4.744;2023-04-29T04:57:48;26.03;;;14.00;;
8791;SDS011;4432;50.890;4.744;2023-04-29T05:00:14;25.93;;;13.50;;
8791;SDS011;4432;50.890;4.744;2023-04-29T05:02:40;25.10;;;13.47;;
8791;SDS011;4432;50.890;4.744;2023-04-29T05:05:06;29.23;;;14.97;;
8791;SDS011;4432;50.890;4.744;2023-04-29T05:07:32;30.73;;;12.73;;
8791;SDS011;4432;50.890;4.744;2023-04-29T05:10:01;32.40;;;15.60;;
8791;SDS011;4432;50.890;4.744;2023-04-29T05:12:27;26.80;;;14.90;;
8791;SDS011;4432;50.890;4.744;2023-04-29T05:14:55;29.80;;;15.07;;
8791;SDS011;4432;50.890;4.744;2023-04-29T05:17:21;28.47;;;14.47;;
8791;SDS011;4432;50.890;4.744;2023-04-29T05:19:46;31.60;;;14.77;;
8791;SDS011;4432;50.890;4.744;2023-04-29T05:22:12;34.87;;;14.20;;
8791;SDS011;4432;50.890;4.744;2023-04-29T05:24:38;22.70;;;13.77;;
8791;SDS011;4432;50.890;4.744;2023-04-29T05:27:04;26.10;;;14.07;;
8791;SDS011;4432;50.890;4.744;2023-04-29T05:29:30;32.57;;;14.53;;
8791;SDS011;4432;50.890;4.744;2023-04-29T05:31:55;33.13;;;15.00;;
8791;SDS011;4432;50.890;4.744;2023-04-29T05:34:21;24.47;;;13.27;;
8791;SDS011;4432;50.890;4.744;2023-04-29T05:36:47;28.27;;;13.93;;
8791;SDS011;4432;50.890;4.744;2023-04-29T05:39:13;30.80;;;14.23;;
8791;SDS011;4432;50.890;4.744;2023-04-29T05:41:39;32.27;;;15.43;;
8791;SDS011;4432;50.890;4.744;2023-04-29T05:44:04;26.37;;;14.10;;
8791;SDS011;4432;50.890;4.744;2023-04-29T05:46:30;28.90;;;13.87;;
8791;SDS011;4432;50.890;4.744;2023-04-29T05:48:56;24.87;;;13.83;;
8791;SDS011;4432;50.890;4.744;2023-04-29T05:51:22;23.50;;;12.30;;
8791;SDS011;4432;50.890;4.744;2023-04-29T05:53:47;26.80;;;12.77;;
8791;SDS011;4432;50.890;4.744;2023-04-29T05:56:13;20.40;;;12.70;;
8791;SDS011;4432;50.890;4.744;2023-04-29T05:58:39;30.50;;;13.53;;
8791;SDS011;4432;50.890;4.744;2023-04-29T06:01:05;24.30;;;13.13;;
8791;SDS011;4432;50.890;4.744;2023-04-29T06:03:31;28.30;;;13.30;;
8791;SDS011;4432;50.890;4.744;2023-04-29T06:05:56;28.50;;;14.40;;
8791;SDS011;4432;50.890;4.744;2023-04-29T06:08:22;26.00;;;13.67;;
8791;SDS011;4432;50.890;4.744;2023-04-29T06:10:48;25.37;;;13.23;;
8791;SDS011;4432;50.890;4.744;2023-04-29T06:13:16;30.97;;;14.13;;
8791;SDS011;4432;50.890;4.744;2023-04-29T06:15:42;26.93;;;13.43;;
8791;SDS011;4432;50.890;4.744;2023-04-29T06:18:08;23.07;;;12.87;;
8791;SDS011;4432;50.890;4.744;2023-04-29T06:20:34;24.27;;;12.87;;
8791;SDS011;4432;50.890;4.744;2023-04-29T06:23:00;23.87;;;13.07;;
8791;SDS011;4432;50.890;4.744;2023-04-29T06:25:26;27.47;;;14.27;;
8791;SDS011;4432;50.890;4.744;2023-04-29T06:27:51;26.80;;;13.60;;
8791;SDS011;4432;50.890;4.744;2023-04-29T06:30:18;25.00;;;13.23;;
8791;SDS011;4432;50.890;4.744;2023-04-29T06:32:44;21.90;;;11.93;;
8791;SDS011;4432;50.890;4.744;2023-04-29T06:35:09;22.77;;;13.30;;
8791;SDS011;4432;50.890;4.744;2023-04-29T06:37:35;22.43;;;12.03;;
8791;SDS011;4432;50.890;4.744;2023-04-29T06:40:01;23.23;;;11.70;;
8791;SDS011;4432;50.890;4.744;2023-04-29T06:42:27;22.30;;;11.53;;
8791;SDS011;4432;50.890;4.744;2023-04-29T06:44:53;26.63;;;13.37;;
8791;SDS011;4432;50.890;4.744;2023-04-29T06:47:18;17.97;;;11.03;;
8791;SDS011;4432;50.890;4.744;2023-04-29T06:49:45;17.97;;;10.97;;
8791;SDS011;4432;50.890;4.744;2023-04-29T06:52:11;23.97;;;11.83;;
8791;SDS011;4432;50.890;4.744;2023-04-29T06:54:37;21.00;;;12.17;;
8791;SDS011;4432;50.890;4.744;2023-04-29T06:57:03;23.20;;;11.67;;
8791;SDS011;4432;50.890;4.744;2023-04-29T06:59:29;20.13;;;10.97;;
8791;SDS011;4432;50.890;4.744;2023-04-29T07:01:54;22.53;;;11.20;;
8791;SDS011;4432;50.890;4.744;2023-04-29T07:04:20;18.03;;;10.53;;
8791;SDS011;4432;50.890;4.744;2023-04-29T07:06:46;18.33;;;11.07;;
8791;SDS011;4432;50.890;4.744;2023-04-29T07:09:12;15.67;;;10.53;;
8791;SDS011;4432;50.890;4.744;2023-04-29T07:11:38;18.97;;;12.00;;
8791;SDS011;4432;50.890;4.744;2023-04-29T07:14:05;22.60;;;11.23;;
8791;SDS011;4432;50.890;4.744;2023-04-29T07:16:31;16.93;;;11.10;;
8791;SDS011;4432;50.890;4.744;2023-04-29T07:18:57;27.60;;;11.37;;
8791;SDS011;4432;50.890;4.744;2023-04-29T07:21:23;22.87;;;11.30;;
8791;SDS011;4432;50.890;4.744;2023-04-29T07:23:49;20.57;;;11.50;;
8791;SDS011;4432;50.890;4.744;2023-04-29T07:26:16;18.37;;;10.43;;
8791;SDS011;4432;50.890;4.744;2023-04-29T07:28:42;17.13;;;10.70;;
8791;SDS011;4432;50.890;4.744;2023-04-29T07:31:09;20.63;;;10.30;;
8791;SDS011;4432;50.890;4.744;2023-04-29T07:33:36;20.43;;;10.30;;
8791;SDS011;4432;50.890;4.744;2023-04-29T07:36:02;19.53;;;12.17;;
8791;SDS011;4432;50.890;4.744;2023-04-29T07:38:28;23.27;;;11.13;;
8791;SDS011;4432;50.890;4.744;2023-04-29T07:40:54;20.50;;;10.43;;
8791;SDS011;4432;50.890;4.744;2023-04-29T07:43:21;16.67;;;10.10;;
8791;SDS011;4432;50.890;4.744;2023-04-29T07:45:47;17.67;;;9.77;;
8791;SDS011;4432;50.890;4.744;2023-04-29T07:48:13;17.27;;;10.23;;
8791;SDS011;4432;50.890;4.744;2023-04-29T07:50:39;18.17;;;10.20;;
8791;SDS011;4432;50.890;4.744;2023-04-29T07:53:05;22.10;;;11.80;;
8791;SDS011;4432;50.890;4.744;2023-04-29T07:55:31;16.57;;;10.90;;
8791;SDS011;4432;50.890;4.744;2023-04-29T07:57:57;16.50;;;10.17;;
8791;SDS011;4432;50.890;4.744;2023-04-29T08:00:23;21.27;;;10.53;;
8791;SDS011;4432;50.890;4.744;2023-04-29T08:02:50;14.90;;;9.77;;
8791;SDS011;4432;50.890;4.744;2023-04-29T08:05:16;15.07;;;9.97;;
8791;SDS011;4432;50.890;4.744;2023-04-29T08:07:43;14.57;;;9.67;;
8791;SDS011;4432;50.890;4.744;2023-04-29T08:10:08;17.03;;;9.93;;
8791;SDS011;4432;50.890;4.744;2023-04-29T08:12:34;16.70;;;9.77;;
8791;SDS011;4432;50.890;4.744;2023-04-29T08:15:00;15.60;;;10.07;;
8791;SDS011;4432;50.890;4.744;2023-04-29T08:17:26;15.80;;;9.80;;
8791;SDS011;4432;50.890;4.744;2023-04-29T08:19:52;15.77;;;9.57;;
8791;SDS011;4432;50.890;4.744;2023-04-29T08:22:18;20.50;;;10.53;;
8791;SDS011;4432;50.890;4.744;2023-04-29T08:24:44;14.83;;;9.47;;
8791;SDS011;4432;50.890;4.744;2023-04-29T08:27:09;20.77;;;9.97;;
8791;SDS011;4432;50.890;4.744;2023-04-29T08:29:35;16.37;;;10.60;;
8791;SDS011;4432;50.890;4.744;2023-04-29T08:32:01;16.57;;;9.63;;
8791;SDS011;4432;50.890;4.744;2023-04-29T08:34:27;18.13;;;10.53;;
8791;SDS011;4432;50.890;4.744;2023-04-29T08:36:53;16.00;;;10.10;;
8791;SDS011;4432;50.890;4.744;2023-04-29T08:39:19;17.00;;;10.20;;
8791;SDS011;4432;50.890;4.744;2023-04-29T08:41:44;18.53;;;10.50;;
8791;SDS011;4432;50.890;4.744;2023-04-29T08:44:15;16.20;;;9.83;;
8791;SDS011;4432;50.890;4.744;2023-04-29T08:46:42;18.50;;;9.77;;
8791;SDS011;4432;50.890;4.744;2023-04-29T08:49:11;18.90;;;10.33;;
8791;SDS011;4432;50.890;4.744;2023-04-29T08:51:37;18.50;;;10.30;;
8791;SDS011;4432;50.890;4.744;2023-04-29T08:54:03;15.87;;;10.27;;
8791;SDS011;4432;50.890;4.744;2023-04-29T08:56:30;21.43;;;9.87;;
8791;SDS011;4432;50.890;4.744;2023-04-29T08:58:57;13.87;;;9.10;;
8791;SDS011;4432;50.890;4.744;2023-04-29T09:01:28;16.90;;;10.63;;
8791;SDS011;4432;50.890;4.744;2023-04-29T09:06:25;16.20;;;9.47;;
8791;SDS011;4432;50.890;4.744;2023-04-29T09:08:51;18.23;;;10.57;;
8791;SDS011;4432;50.890;4.744;2023-04-29T09:11:18;18.73;;;10.47;;
8791;SDS011;4432;50.890;4.744;2023-04-29T09:13:44;16.70;;;9.93;;
8791;SDS011;4432;50.890;4.744;2023-04-29T09:16:10;16.60;;;10.60;;
8791;SDS011;4432;50.890;4.744;2023-04-29T09:18:49;21.13;;;9.47;;
8791;SDS011;4432;50.890;4.744;2023-04-29T09:23:43;19.27;;;10.10;;
8791;SDS011;4432;50.890;4.744;2023-04-29T09:26:10;19.90;;;10.70;;
8791;SDS011;4432;50.890;4.744;2023-04-29T09:28:36;17.23;;;9.23;;
8791;SDS011;4432;50.890;4.744;2023-04-29T09:31:03;12.93;;;8.40;;
8791;SDS011;4432;50.890;4.744;2023-04-29T09:33:30;15.93;;;8.27;;
8791;SDS011;4432;50.890;4.744;2023-04-29T09:35:57;13.20;;;8.10;;
8791;SDS011;4432;50.890;4.744;2023-04-29T09:38:22;14.67;;;8.13;;
8791;SDS011;4432;50.890;4.744;2023-04-29T09:40:48;13.17;;;7.67;;
8791;SDS011;4432;50.890;4.744;2023-04-29T09:43:16;13.80;;;8.40;;
8791;SDS011;4432;50.890;4.744;2023-04-29T09:45:44;12.53;;;7.53;;
8791;SDS011;4432;50.890;4.744;2023-04-29T09:48:11;12.77;;;7.50;;
8791;SDS011;4432;50.890;4.744;2023-04-29T09:50:39;12.50;;;7.97;;
8791;SDS011;4432;50.890;4.744;2023-04-29T09:53:06;11.20;;;7.83;;
8791;SDS011;4432;50.890;4.744;2023-04-29T09:58:30;10.07;;;7.03;;
8791;SDS011;4432;50.890;4.744;2023-04-29T10:01:02;14.67;;;8.00;;
8791;SDS011;4432;50.890;4.744;2023-04-29T10:03:32;9.93;;;7.33;;
8791;SDS011;4432;50.890;4.744;2023-04-29T10:05:59;13.30;;;8.03;;
8791;SDS011;4432;50.890;4.744;2023-04-29T10:08:28;11.13;;;7.43;;
8791;SDS011;4432;50.890;4.744;2023-04-29T10:10:55;13.17;;;8.20;;
8791;SDS011;4432;50.890;4.744;2023-04-29T10:13:24;12.63;;;7.80;;
8791;SDS011;4432;50.890;4.744;2023-04-29T10:18:48;13.43;;;7.30;;
8791;SDS011;4432;50.890;4.744;2023-04-29T10:21:19;12.83;;;7.50;;
8791;SDS011;4432;50.890;4.744;2023-04-29T10:23:48;12.90;;;6.97;;
8791;SDS011;4432;50.890;4.744;2023-04-29T10:26:15;11.00;;;7.77;;
8791;SDS011;4432;50.890;4.744;2023-04-29T10:28:43;12.17;;;7.07;;
8791;SDS011;4432;50.890;4.744;2023-04-29T10:31:11;11.40;;;7.93;;
8791;SDS011;4432;50.890;4.744;2023-04-29T10:33:39;12.07;;;7.67;;
8791;SDS011;4432;50.890;4.744;2023-04-29T10:36:09;10.50;;;7.43;;
8791;SDS011;4432;50.890;4.744;2023-04-29T10:38:41;12.57;;;7.67;;
8791;SDS011;4432;50.890;4.744;2023-04-29T10:41:25;12.63;;;7.97;;
8791;SDS011;4432;50.890;4.744;2023-04-29T10:43:53;13.43;;;7.33;;
8791;SDS011;4432;50.890;4.744;2023-04-29T10:46:23;13.13;;;8.20;;
8791;SDS011;4432;50.890;4.744;2023-04-29T10:48:55;13.47;;;7.80;;
8791;SDS011;4432;50.890;4.744;2023-04-29T10:51:29;11.63;;;7.50;;
8791;SDS011;4432;50.890;4.744;2023-04-29T10:56:49;12.57;;;8.40;;
8791;SDS011;4432;50.890;4.744;2023-04-29T11:01:58;13.30;;;8.03;;
8791;SDS011;4432;50.890;4.744;2023-04-29T11:04:24;13.83;;;8.43;;
8791;SDS011;4432;50.890;4.744;2023-04-29T11:06:54;13.33;;;8.40;;
8791;SDS011;4432;50.890;4.744;2023-04-29T11:09:23;17.50;;;8.23;;
8791;SDS011;4432;50.890;4.744;2023-04-29T11:11:57;14.30;;;7.87;;
8791;SDS011;4432;50.890;4.744;2023-04-29T11:17:02;15.50;;;8.03;;
8791;SDS011;4432;50.890;4.744;2023-04-29T11:24:36;11.67;;;8.33;;
8791;SDS011;4432;50.890;4.744;2023-04-29T11:27:16;15.20;;;7.93;;
8791;SDS011;4432;50.890;4.744;2023-04-29T11:29:44;12.60;;;8.27;;
8791;SDS011;4432;50.890;4.744;2023-04-29T11:32:11;11.87;;;7.33;;
8791;SDS011;4432;50.890;4.744;2023-04-29T11:34:39;9.63;;;7.20;;
8791;SDS011;4432;50.890;4.744;2023-04-29T11:37:05;9.10;;;6.93;;
8791;SDS011;4432;50.890;4.744;2023-04-29T11:39:34;8.97;;;6.47;;
8791;SDS011;4432;50.890;4.744;2023-04-29T11:42:06;9.20;;;7.00;;
8791;SDS011;4432;50.890;4.744;2023-04-29T11:44:33;10.03;;;7.23;;
8791;SDS011;4432;50.890;4.744;2023-04-29T11:47:03;11.57;;;6.97;;
8791;SDS011;4432;50.890;4.744;2023-04-29T11:49:30;12.13;;;6.83;;
8791;SDS011;4432;50.890;4.744;2023-04-29T11:51:57;9.73;;;7.00;;
8791;SDS011;4432;50.890;4.744;2023-04-29T11:54:26;14.80;;;6.83;;
8791;SDS011;4432;50.890;4.744;2023-04-29T11:56:53;13.27;;;8.57;;
8791;SDS011;4432;50.890;4.744;2023-04-29T11:59:20;12.00;;;7.77;;
8791;SDS011;4432;50.890;4.744;2023-04-29T12:01:47;10.13;;;7.33;;
8791;SDS011;4432;50.890;4.744;2023-04-29T12:04:16;13.17;;;8.00;;
8791;SDS011;4432;50.890;4.744;2023-04-29T12:06:43;14.80;;;7.90;;
8791;SDS011;4432;50.890;4.744;2023-04-29T12:09:10;10.40;;;7.00;;
8791;SDS011;4432;50.890;4.744;2023-04-29T12:11:36;11.00;;;7.63;;
8791;SDS011;4432;50.890;4.744;2023-04-29T12:14:02;12.83;;;7.43;;
8791;SDS011;4432;50.890;4.744;2023-04-29T12:16:30;9.17;;;6.83;;
8791;SDS011;4432;50.890;4.744;2023-04-29T12:18:57;12.00;;;6.77;;
8791;SDS011;4432;50.890;4.744;2023-04-29T12:21:24;9.90;;;6.40;;
8791;SDS011;4432;50.890;4.744;2023-04-29T12:23:51;11.67;;;6.77;;
8791;SDS011;4432;50.890;4.744;2023-04-29T12:26:18;10.07;;;6.27;;
8791;SDS011;4432;50.890;4.744;2023-04-29T12:28:45;7.83;;;6.13;;
8791;SDS011;4432;50.890;4.744;2023-04-29T12:31:13;10.90;;;7.53;;
8791;SDS011;4432;50.890;4.744;2023-04-29T12:33:43;8.57;;;6.43;;
8791;SDS011;4432;50.890;4.744;2023-04-29T12:36:15;9.13;;;6.27;;
8791;SDS011;4432;50.890;4.744;2023-04-29T12:38:42;10.27;;;6.63;;
8791;SDS011;4432;50.890;4.744;2023-04-29T12:41:08;9.83;;;6.97;;
8791;SDS011;4432;50.890;4.744;2023-04-29T12:43:34;11.60;;;6.80;;
8791;SDS011;4432;50.890;4.744;2023-04-29T12:46:05;13.30;;;6.57;;
8791;SDS011;4432;50.890;4.744;2023-04-29T12:48:32;8.77;;;6.80;;
8791;SDS011;4432;50.890;4.744;2023-04-29T12:51:01;9.97;;;6.43;;
8791;SDS011;4432;50.890;4.744;2023-04-29T12:53:30;7.63;;;6.03;;
8791;SDS011;4432;50.890;4.744;2023-04-29T12:55:56;9.60;;;7.07;;
8791;SDS011;4432;50.890;4.744;2023-04-29T12:58:22;10.13;;;6.57;;
8791;SDS011;4432;50.890;4.744;2023-04-29T13:00:48;9.70;;;7.03;;
8791;SDS011;4432;50.890;4.744;2023-04-29T13:03:14;8.60;;;6.90;;
8791;SDS011;4432;50.890;4.744;2023-04-29T13:05:40;9.43;;;6.63;;
8791;SDS011;4432;50.890;4.744;2023-04-29T13:08:06;10.93;;;6.77;;
8791;SDS011;4432;50.890;4.744;2023-04-29T13:10:33;10.90;;;6.57;;
8791;SDS011;4432;50.890;4.744;2023-04-29T13:12:59;9.53;;;6.40;;
8791;SDS011;4432;50.890;4.744;2023-04-29T13:15:25;10.47;;;6.87;;
8791;SDS011;4432;50.890;4.744;2023-04-29T13:17:51;9.57;;;6.80;;
8791;SDS011;4432;50.890;4.744;2023-04-29T13:20:18;11.20;;;6.47;;
8791;SDS011;4432;50.890;4.744;2023-04-29T13:22:44;8.13;;;6.20;;
8791;SDS011;4432;50.890;4.744;2023-04-29T13:25:10;6.63;;;5.77;;
8791;SDS011;4432;50.890;4.744;2023-04-29T13:27:36;8.73;;;6.93;;
8791;SDS011;4432;50.890;4.744;2023-04-29T13:30:03;8.97;;;6.70;;
8791;SDS011;4432;50.890;4.744;2023-04-29T13:32:30;11.13;;;6.83;;
8791;SDS011;4432;50.890;4.744;2023-04-29T13:34:56;10.03;;;6.50;;
8791;SDS011;4432;50.890;4.744;2023-04-29T13:37:22;8.60;;;6.40;;
8791;SDS011;4432;50.890;4.744;2023-04-29T13:39:47;8.60;;;6.00;;
8791;SDS011;4432;50.890;4.744;2023-04-29T13:42:13;9.30;;;6.03;;
8791;SDS011;4432;50.890;4.744;2023-04-29T13:44:39;6.73;;;5.50;;
8791;SDS011;4432;50.890;4.744;2023-04-29T13:47:09;7.40;;;5.70;;
8791;SDS011;4432;50.890;4.744;2023-04-29T13:49:37;6.30;;;5.17;;
8791;SDS011;4432;50.890;4.744;2023-04-29T13:52:03;6.50;;;4.70;;
8791;SDS011;4432;50.890;4.744;2023-04-29T13:54:29;9.47;;;5.60;;
8791;SDS011;4432;50.890;4.744;2023-04-29T13:56:55;6.33;;;5.50;;
8791;SDS011;4432;50.890;4.744;2023-04-29T13:59:21;6.63;;;4.90;;
8791;SDS011;4432;50.890;4.744;2023-04-29T14:01:47;6.93;;;5.33;;
8791;SDS011;4432;50.890;4.744;2023-04-29T14:04:15;11.87;;;5.43;;
8791;SDS011;4432;50.890;4.744;2023-04-29T14:06:44;6.70;;;5.60;;
8791;SDS011;4432;50.890;4.744;2023-04-29T14:09:10;6.23;;;4.83;;
8791;SDS011;4432;50.890;4.744;2023-04-29T14:11:36;6.80;;;5.37;;
8791;SDS011;4432;50.890;4.744;2023-04-29T14:14:02;6.67;;;5.43;;
8791;SDS011;4432;50.890;4.744;2023-04-29T14:16:28;10.43;;;4.90;;
8791;SDS011;4432;50.890;4.744;2023-04-29T14:18:54;7.30;;;5.13;;
8791;SDS011;4432;50.890;4.744;2023-04-29T14:21:20;5.60;;;5.00;;
8791;SDS011;4432;50.890;4.744;2023-04-29T14:23:49;7.07;;;5.80;;
8791;SDS011;4432;50.890;4.744;2023-04-29T14:26:15;8.00;;;5.43;;
8791;SDS011;4432;50.890;4.744;2023-04-29T14:28:41;6.93;;;5.20;;
8791;SDS011;4432;50.890;4.744;2023-04-29T14:31:07;6.77;;;5.30;;
8791;SDS011;4432;50.890;4.744;2023-04-29T14:33:32;8.10;;;5.10;;
8791;SDS011;4432;50.890;4.744;2023-04-29T14:35:58;8.20;;;5.40;;
8791;SDS011;4432;50.890;4.744;2023-04-29T14:38:27;6.97;;;5.10;;
8791;SDS011;4432;50.890;4.744;2023-04-29T14:40:53;7.87;;;5.67;;
8791;SDS011;4432;50.890;4.744;2023-04-29T14:43:18;8.97;;;6.07;;
8791;SDS011;4432;50.890;4.744;2023-04-29T14:45:44;8.13;;;5.03;;
8791;SDS011;4432;50.890;4.744;2023-04-29T14:48:11;8.27;;;5.90;;
8791;SDS011;4432;50.890;4.744;2023-04-29T14:50:37;11.17;;;6.13;;
8791;SDS011;4432;50.890;4.744;2023-04-29T14:53:02;7.77;;;5.47;;
8791;SDS011;4432;50.890;4.744;2023-04-29T14:55:28;8.07;;;5.60;;
8791;SDS011;4432;50.890;4.744;2023-04-29T14:57:54;10.67;;;5.77;;
8791;SDS011;4432;50.890;4.744;2023-04-29T15:00:20;11.17;;;6.53;;
8791;SDS011;4432;50.890;4.744;2023-04-29T15:02:46;6.93;;;5.40;;
8791;SDS011;4432;50.890;4.744;2023-04-29T15:05:13;7.07;;;5.80;;
8791;SDS011;4432;50.890;4.744;2023-04-29T15:07:39;8.67;;;5.63;;
8791;SDS011;4432;50.890;4.744;2023-04-29T15:10:05;8.93;;;5.80;;
8791;SDS011;4432;50.890;4.744;2023-04-29T15:12:33;8.07;;;5.67;;
8791;SDS011;4432;50.890;4.744;2023-04-29T15:14:59;8.27;;;6.13;;
8791;SDS011;4432;50.890;4.744;2023-04-29T15:17:25;8.13;;;6.47;;
8791;SDS011;4432;50.890;4.744;2023-04-29T15:19:51;8.80;;;5.87;;
8791;SDS011;4432;50.890;4.744;2023-04-29T15:22:16;6.80;;;6.03;;
8791;SDS011;4432;50.890;4.744;2023-04-29T15:24:42;6.60;;;5.37;;
8791;SDS011;4432;50.890;4.744;2023-04-29T15:27:08;9.37;;;4.93;;
8791;SDS011;4432;50.890;4.744;2023-04-29T15:29:35;5.97;;;4.80;;
8791;SDS011;4432;50.890;4.744;2023-04-29T15:32:01;5.73;;;4.97;;